createdAt,value
2016-08-04T00:00:24.653Z,69.45
2016-08-04T00:01:24.664Z,69.35
2016-08-04T00:02:24.662Z,69.35
2016-08-04T00:03:24.696Z,69.35
2016-08-04T00:04:24.684Z,69.45
2016-08-04T00:05:24.676Z,69.26
2016-08-04T00:06:24.695Z,69.64
2016-08-04T00:07:24.721Z,69.35
2016-08-04T00:08:24.724Z,69.35
2016-08-04T00:09:24.734Z,69.64
2016-08-04T00:10:24.728Z,69.64
2016-08-04T00:11:24.737Z,69.45
2016-08-04T00:12:24.760Z,69.35
2016-08-04T00:13:24.759Z,69.45
2016-08-04T00:14:24.763Z,69.55
2016-08-04T00:15:24.791Z,69.64
2016-08-04T00:16:24.795Z,69.35
2016-08-04T00:17:24.788Z,69.35
2016-08-04T00:18:24.808Z,69.35
2016-08-04T00:20:24.829Z,69.35
2016-08-04T00:21:24.845Z,69.26
2016-08-04T00:22:24.846Z,69.35
2016-08-04T00:23:24.849Z,69.45
2016-08-04T00:24:24.863Z,69.35
2016-08-04T00:25:24.860Z,69.45
2016-08-04T00:26:24.879Z,69.35
2016-08-04T00:27:24.883Z,69.16
2016-08-04T00:28:24.901Z,69.35
2016-08-04T00:29:24.919Z,69.64
2016-08-04T00:30:24.934Z,69.16
2016-08-04T00:31:24.926Z,69.26
2016-08-04T00:32:24.936Z,69.26
2016-08-04T00:33:24.934Z,69.16
2016-08-04T00:34:24.955Z,69.26
2016-08-04T00:35:24.962Z,69.26
2016-08-04T00:36:24.984Z,69.45
2016-08-04T00:37:24.966Z,69.35
2016-08-04T00:38:24.998Z,69.26
2016-08-04T00:39:25.004Z,69.45
2016-08-04T00:40:25.004Z,69.35
2016-08-04T00:41:25.005Z,69.35
2016-08-04T00:42:25.036Z,69.26
2016-08-04T00:43:25.033Z,69.26
2016-08-04T00:44:25.029Z,69.26
2016-08-04T00:45:25.036Z,69.35
2016-08-04T00:46:25.068Z,69.35
2016-08-04T00:47:25.073Z,69.26
2016-08-04T00:48:25.080Z,69.26
2016-08-04T00:49:25.081Z,69.16
2016-08-04T00:50:25.092Z,69.26
2016-08-04T00:51:25.112Z,69.35
2016-08-04T00:52:25.126Z,69.45
2016-08-04T00:53:25.115Z,69.45
2016-08-04T00:54:25.135Z,69.26
2016-08-04T00:55:25.145Z,69.26
2016-08-04T00:56:25.140Z,69.26
2016-08-04T00:57:25.149Z,69.45
2016-08-04T00:58:25.170Z,69.26
2016-08-04T00:59:25.161Z,69.16
2016-08-04T01:00:25.185Z,69.35
2016-08-04T01:01:25.176Z,69.35
2016-08-04T01:02:25.202Z,69.45
2016-08-04T01:03:25.191Z,69.16
2016-08-04T01:04:25.208Z,69.16
2016-08-04T01:05:25.226Z,69.35
2016-08-04T01:06:25.234Z,69.45
2016-08-04T01:07:25.251Z,69.16
2016-08-04T01:08:25.269Z,69.26
2016-08-04T01:09:25.253Z,69.55
2016-08-04T01:10:25.284Z,69.35
2016-08-04T01:11:25.276Z,69.26
2016-08-04T01:12:25.279Z,69.26
2016-08-04T01:13:25.297Z,69.35
2016-08-04T01:14:25.328Z,69.55
2016-08-04T01:15:25.300Z,69.45
2016-08-04T01:16:25.305Z,69.26
2016-08-04T01:17:25.318Z,69.45
2016-08-04T01:18:25.326Z,69.26
2016-08-04T01:19:25.340Z,69.45
2016-08-04T01:20:25.366Z,69.26
2016-08-04T01:21:25.369Z,69.35
2016-08-04T01:22:25.375Z,69.26
2016-08-04T01:23:25.395Z,69.26
2016-08-04T01:24:25.398Z,69.45
2016-08-04T01:25:25.414Z,69.55
2016-08-04T01:26:25.406Z,69.26
2016-08-04T01:27:25.411Z,69.35
2016-08-04T01:28:25.433Z,69.35
2016-08-04T01:29:25.435Z,69.45
2016-08-04T01:30:25.438Z,69.45
2016-08-04T01:31:25.438Z,69.74
2016-08-04T01:32:25.453Z,69.26
2016-08-04T01:33:25.468Z,69.32
2016-08-04T01:34:25.480Z,69.74
2016-08-04T01:35:25.498Z,69.64
2016-08-04T01:36:25.499Z,69.07
2016-08-04T01:37:25.499Z,69.32
2016-08-04T01:38:25.521Z,69.16
2016-08-04T01:39:25.535Z,69.61
2016-08-04T01:40:25.537Z,69.55
2016-08-04T01:41:25.527Z,69.64
2016-08-04T01:42:25.562Z,69.84
2016-08-04T01:43:25.553Z,69.51
2016-08-04T01:44:25.580Z,69.26
2016-08-04T01:45:25.586Z,69.74
2016-08-04T01:46:25.599Z,69.74
2016-08-04T01:47:25.607Z,69.74
2016-08-04T01:48:25.610Z,69.64
2016-08-04T01:49:25.618Z,69.16
2016-08-04T01:50:25.613Z,69.26
2016-08-04T01:51:25.618Z,69.35
2016-08-04T01:52:25.647Z,69.64
2016-08-04T01:53:25.654Z,69.64
2016-08-04T01:54:25.653Z,69.64
2016-08-04T01:55:25.670Z,69.55
2016-08-04T01:56:25.677Z,69.64
2016-08-04T01:57:25.683Z,69.84
2016-08-04T01:58:25.681Z,69.93
2016-08-04T01:59:25.696Z,69.42
2016-08-04T02:00:25.716Z,69.55
2016-08-04T02:01:25.709Z,69.45
2016-08-04T02:02:25.735Z,69.74
2016-08-04T02:03:25.746Z,69.55
2016-08-04T02:04:25.747Z,69.64
2016-08-04T02:05:25.738Z,69.64
2016-08-04T02:06:25.751Z,69.84
2016-08-04T02:07:25.759Z,69.71
2016-08-04T02:08:25.802Z,69.74
2016-08-04T02:09:25.796Z,69.61
2016-08-04T02:10:25.805Z,70
2016-08-04T02:11:25.801Z,69.64
2016-08-04T02:12:25.830Z,70
2016-08-04T02:13:25.816Z,69.61
2016-08-04T02:14:25.841Z,69.71
2016-08-04T02:15:25.842Z,70
2016-08-04T02:16:25.848Z,70.09
2016-08-04T02:17:25.867Z,69.9
2016-08-04T02:18:25.874Z,69.9
2016-08-04T02:19:25.874Z,69.8
2016-08-04T02:20:25.887Z,69.71
2016-08-04T02:21:25.886Z,70.09
2016-08-04T02:22:25.891Z,69.9
2016-08-04T02:23:25.904Z,69.74
2016-08-04T02:24:25.924Z,69.61
2016-08-04T02:25:25.919Z,69.51
2016-08-04T02:26:25.930Z,70.09
2016-08-04T02:27:25.950Z,70
2016-08-04T02:28:25.947Z,69.9
2016-08-04T02:29:25.964Z,69.9
2016-08-04T02:30:25.974Z,70
2016-08-04T02:31:25.962Z,70
2016-08-04T02:32:25.994Z,69.71
2016-08-04T02:33:25.996Z,70
2016-08-04T02:34:26.008Z,70
2016-08-04T02:35:26.020Z,69.9
2016-08-04T02:36:26.015Z,69.71
2016-08-04T02:37:26.049Z,69.71
2016-08-04T02:38:26.030Z,69.8
2016-08-04T02:39:26.051Z,69.8
2016-08-04T02:40:26.042Z,69.8
2016-08-04T02:41:26.066Z,69.71
2016-08-04T02:42:26.074Z,69.8
2016-08-04T02:43:26.088Z,69.8
2016-08-04T02:44:26.083Z,69.71
2016-08-04T02:45:26.091Z,69.8
2016-08-04T02:46:26.111Z,70
2016-08-04T02:47:26.117Z,69.8
2016-08-04T02:48:26.134Z,69.8
2016-08-04T02:49:26.114Z,69.61
2016-08-04T02:50:26.150Z,70
2016-08-04T02:51:26.136Z,69.61
2016-08-04T02:52:26.146Z,69.8
2016-08-04T02:53:26.153Z,69.61
2016-08-04T02:54:26.174Z,69.71
2016-08-04T02:55:26.179Z,69.51
2016-08-04T02:56:26.186Z,69.61
2016-08-04T02:57:26.193Z,69.61
2016-08-04T02:58:26.217Z,69.9
2016-08-04T02:59:26.276Z,69.61
2016-08-04T03:00:26.220Z,69.71
2016-08-04T03:01:26.248Z,69.9
2016-08-04T03:02:26.239Z,69.8
2016-08-04T03:03:26.245Z,69.71
2016-08-04T03:04:26.266Z,69.61
2016-08-04T03:06:26.268Z,69.61
2016-08-04T03:07:26.286Z,69.8
2016-08-04T03:08:26.291Z,69.8
2016-08-04T03:09:26.299Z,69.51
2016-08-04T03:10:26.317Z,69.8
2016-08-04T03:11:26.308Z,69.61
2016-08-04T03:12:26.323Z,69.9
2016-08-04T03:13:26.345Z,69.9
2016-08-04T03:14:26.356Z,69.8
2016-08-04T03:15:26.344Z,69.71
2016-08-04T03:16:26.373Z,69.8
2016-08-04T03:17:26.367Z,69.8
2016-08-04T03:18:26.366Z,69.71
2016-08-04T03:19:26.396Z,69.61
2016-08-04T03:21:26.400Z,69.61
2016-08-04T03:22:26.411Z,69.71
2016-08-04T03:23:26.436Z,69.9
2016-08-04T03:24:26.441Z,69.8
2016-08-04T03:25:26.447Z,69.71
2016-08-04T03:26:26.448Z,69.8
2016-08-04T03:27:26.453Z,69.8
2016-08-04T03:28:26.478Z,69.61
2016-08-04T03:29:26.482Z,69.71
2016-08-04T03:30:26.487Z,69.61
2016-08-04T03:31:26.489Z,69.71
2016-08-04T03:32:26.498Z,69.61
2016-08-04T03:33:26.508Z,69.61
2016-08-04T03:34:26.517Z,69.8
2016-08-04T03:36:26.539Z,69.71
2016-08-04T03:37:26.542Z,69.61
2016-08-04T03:38:26.570Z,69.8
2016-08-04T03:39:26.574Z,69.71
2016-08-04T03:40:26.579Z,69.61
2016-08-04T03:41:26.567Z,69.61
2016-08-04T03:42:26.593Z,69.61
2016-08-04T03:43:26.610Z,69.51
2016-08-04T03:44:26.611Z,69.71
2016-08-04T03:45:26.616Z,69.61
2016-08-04T03:46:26.614Z,69.71
2016-08-04T03:47:26.633Z,69.8
2016-08-04T03:48:26.629Z,69.71
2016-08-04T03:49:26.659Z,69.61
2016-08-04T03:51:26.656Z,69.71
2016-08-04T03:52:26.666Z,69.71
2016-08-04T03:53:26.691Z,69.71
2016-08-04T03:54:26.690Z,69.9
2016-08-04T03:55:26.692Z,69.71
2016-08-04T03:56:26.711Z,69.71
2016-08-04T03:57:26.712Z,69.71
2016-08-04T03:58:26.739Z,69.61
2016-08-04T03:59:26.786Z,69.71
2016-08-04T04:00:26.744Z,70
2016-08-04T04:01:26.739Z,69.8
2016-08-04T04:02:26.759Z,69.9
2016-08-04T04:03:26.764Z,69.9
2016-08-04T04:04:26.790Z,69.8
2016-08-04T04:05:26.789Z,69.71
2016-08-04T04:06:26.804Z,69.9
2016-08-04T04:07:26.792Z,69.9
2016-08-04T04:08:26.821Z,69.8
2016-08-04T04:09:26.822Z,69.8
2016-08-04T04:10:26.814Z,69.9
2016-08-04T04:11:26.843Z,69.8
2016-08-04T04:12:26.845Z,69.8
2016-08-04T04:13:26.854Z,69.9
2016-08-04T04:14:26.870Z,69.9
2016-08-04T04:15:26.872Z,69.9
2016-08-04T04:16:26.882Z,69.8
2016-08-04T04:17:26.877Z,70.19
2016-08-04T04:18:26.908Z,69.9
2016-08-04T04:19:26.912Z,69.71
2016-08-04T04:20:26.922Z,69.8
2016-08-04T04:21:26.930Z,70.19
2016-08-04T04:22:26.932Z,69.61
2016-08-04T04:23:26.951Z,69.9
2016-08-04T04:24:26.940Z,69.71
2016-08-04T04:25:26.970Z,69.9
2016-08-04T04:26:26.966Z,69.8
2016-08-04T04:27:26.976Z,69.71
2016-08-04T04:28:26.990Z,69.9
2016-08-04T04:29:27.006Z,70.09
2016-08-04T04:30:27.001Z,69.61
2016-08-04T04:31:27.009Z,69.9
2016-08-04T04:32:27.002Z,69.61
2016-08-04T04:33:27.024Z,69.71
2016-08-04T04:34:27.038Z,69.61
2016-08-04T04:35:27.033Z,69.71
2016-08-04T04:36:27.062Z,69.9
2016-08-04T04:37:27.058Z,69.8
2016-08-04T04:38:27.081Z,69.8
2016-08-04T04:39:27.072Z,69.71
2016-08-04T04:40:27.094Z,69.61
2016-08-04T04:41:27.104Z,69.71
2016-08-04T04:42:27.105Z,69.61
2016-08-04T04:43:27.119Z,69.61
2016-08-04T04:44:27.831Z,69.8
2016-08-04T04:45:27.137Z,69.61
2016-08-04T04:46:27.140Z,69.61
2016-08-04T04:47:27.136Z,69.61
2016-08-04T04:48:27.138Z,69.61
2016-08-04T04:49:27.153Z,69.61
2016-08-04T04:50:27.181Z,69.61
2016-08-04T04:51:27.175Z,69.71
2016-08-04T04:52:27.178Z,69.71
2016-08-04T04:53:27.212Z,69.71
2016-08-04T04:54:27.213Z,69.61
2016-08-04T04:55:27.200Z,69.71
2016-08-04T04:56:27.226Z,69.8
2016-08-04T04:57:27.230Z,69.8
2016-08-04T04:58:27.254Z,69.61
2016-08-04T04:59:27.301Z,69.8
2016-08-04T05:00:27.260Z,69.71
2016-08-04T05:01:27.272Z,69.61
2016-08-04T05:02:27.275Z,69.71
2016-08-04T05:03:27.293Z,69.61
2016-08-04T05:04:27.319Z,69.71
2016-08-04T05:05:27.300Z,69.61
2016-08-04T05:06:27.302Z,69.71
2016-08-04T05:07:27.326Z,69.61
2016-08-04T05:08:27.334Z,69.9
2016-08-04T05:09:27.342Z,70
2016-08-04T05:10:27.349Z,69.9
2016-08-04T05:11:27.346Z,69.71
2016-08-04T05:12:27.371Z,69.71
2016-08-04T05:13:27.367Z,69.8
2016-08-04T05:14:27.383Z,69.9
2016-08-04T05:15:28.082Z,69.71
2016-08-04T05:16:27.404Z,69.71
2016-08-04T05:17:27.398Z,69.8
2016-08-04T05:18:27.402Z,69.61
2016-08-04T05:19:27.428Z,69.71
2016-08-04T05:20:27.420Z,69.8
2016-08-04T05:21:27.425Z,69.71
2016-08-04T05:22:27.444Z,69.61
2016-08-04T05:23:27.463Z,69.71
2016-08-04T05:24:27.459Z,69.61
2016-08-04T05:25:27.483Z,69.9
2016-08-04T05:26:27.478Z,69.9
2016-08-04T05:27:27.481Z,69.61
2016-08-04T05:28:27.495Z,69.61
2016-08-04T05:29:27.495Z,69.61
2016-08-04T05:30:27.520Z,69.61
2016-08-04T05:31:27.511Z,69.8
2016-08-04T05:32:27.523Z,69.61
2016-08-04T05:33:27.527Z,69.8
2016-08-04T05:34:27.550Z,69.51
2016-08-04T05:35:27.553Z,69.8
2016-08-04T05:36:27.571Z,69.8
2016-08-04T05:37:27.587Z,69.61
2016-08-04T05:38:27.570Z,69.8
2016-08-04T05:39:27.603Z,69.71
2016-08-04T05:40:27.591Z,69.8
2016-08-04T05:41:27.604Z,69.8
2016-08-04T05:42:27.631Z,69.8
2016-08-04T05:43:27.621Z,69.71
2016-08-04T05:44:27.651Z,69.71
2016-08-04T05:45:27.644Z,70
2016-08-04T05:46:27.668Z,69.71
2016-08-04T05:47:27.668Z,69.8
2016-08-04T05:48:27.672Z,69.71
2016-08-04T05:49:27.688Z,69.9
2016-08-04T05:50:27.690Z,69.8
2016-08-04T05:51:27.710Z,69.8
2016-08-04T05:52:27.711Z,69.71
2016-08-04T05:53:27.715Z,69.9
2016-08-04T05:54:27.723Z,69.61
2016-08-04T05:55:27.740Z,70
2016-08-04T05:56:27.747Z,70
2016-08-04T05:57:27.740Z,70.09
2016-08-04T05:58:27.753Z,70
2016-08-04T05:59:27.752Z,70.09
2016-08-04T06:00:27.768Z,70
2016-08-04T06:01:27.783Z,70
2016-08-04T06:02:27.792Z,70
2016-08-04T06:03:27.814Z,70.09
2016-08-04T06:04:27.799Z,70.09
2016-08-04T06:05:27.824Z,69.71
2016-08-04T06:06:27.832Z,70
2016-08-04T06:07:27.827Z,70.09
2016-08-04T06:08:27.838Z,70.09
2016-08-04T06:09:27.847Z,70
2016-08-04T06:10:27.866Z,69.9
2016-08-04T06:11:27.871Z,69.8
2016-08-04T06:12:27.864Z,69.9
2016-08-04T06:13:27.880Z,69.9
2016-08-04T06:14:27.895Z,69.9
2016-08-04T06:15:27.893Z,69.61
2016-08-04T06:16:27.910Z,69.8
2016-08-04T06:17:27.920Z,69.61
2016-08-04T06:18:27.925Z,69.51
2016-08-04T06:19:27.936Z,69.51
2016-08-04T06:20:27.934Z,69.8
2016-08-04T06:21:27.961Z,69.9
2016-08-04T06:22:27.958Z,69.8
2016-08-04T06:23:27.975Z,69.8
2016-08-04T06:24:27.974Z,69.71
2016-08-04T06:25:27.982Z,69.8
2016-08-04T06:26:28.000Z,69.61
2016-08-04T06:27:28.022Z,69.61
2016-08-04T06:28:28.008Z,69.51
2016-08-04T06:29:28.019Z,69.8
2016-08-04T06:30:28.045Z,69.71
2016-08-04T06:31:28.060Z,69.8
2016-08-04T06:32:28.053Z,69.71
2016-08-04T06:33:28.062Z,69.9
2016-08-04T06:34:28.068Z,69.71
2016-08-04T06:35:28.102Z,69.9
2016-08-04T06:36:28.088Z,69.71
2016-08-04T06:37:28.083Z,69.71
2016-08-04T06:38:28.110Z,69.71
2016-08-04T06:39:28.118Z,69.8
2016-08-04T06:40:28.133Z,69.71
2016-08-04T06:41:28.137Z,69.9
2016-08-04T06:42:28.150Z,70.38
2016-08-04T06:43:28.133Z,70.76
2016-08-04T06:44:28.154Z,70.57
2016-08-04T06:45:28.167Z,70.96
2016-08-04T06:46:28.157Z,70.57
2016-08-04T06:47:28.187Z,70.86
2016-08-04T06:48:28.198Z,70.86
2016-08-04T06:49:28.203Z,70.67
2016-08-04T06:50:28.208Z,71.25
2016-08-04T06:51:28.214Z,71.34
2016-08-04T06:52:28.223Z,71.44
2016-08-04T06:53:28.240Z,71.25
2016-08-04T06:54:28.244Z,71.44
2016-08-04T06:55:28.257Z,71.19
2016-08-04T06:56:28.249Z,72.15
2016-08-04T06:57:28.281Z,72.25
2016-08-04T06:58:28.277Z,72.21
2016-08-04T06:59:28.279Z,72.02
2016-08-04T07:00:28.308Z,72.6
2016-08-04T07:01:28.294Z,73.11
2016-08-04T07:02:28.320Z,73.21
2016-08-04T07:03:28.323Z,73.18
2016-08-04T07:04:28.332Z,73.21
2016-08-04T07:05:28.341Z,73.11
2016-08-04T07:07:28.349Z,73.31
2016-08-04T07:08:28.391Z,73.02
2016-08-04T07:09:28.369Z,72.99
2016-08-04T07:10:28.389Z,73.31
2016-08-04T07:11:28.389Z,73.37
2016-08-04T07:12:28.389Z,73.31
2016-08-04T07:13:28.407Z,73.31
2016-08-04T07:14:28.405Z,73.31
2016-08-04T07:15:28.421Z,73.31
2016-08-04T07:16:28.439Z,73.02
2016-08-04T07:17:28.446Z,73.11
2016-08-04T07:18:28.454Z,73.31
2016-08-04T07:19:28.471Z,73.41
2016-08-04T07:20:28.471Z,73.31
2016-08-04T07:22:28.498Z,73.41
2016-08-04T07:23:28.499Z,73.31
2016-08-04T07:24:28.491Z,73.41
2016-08-04T07:25:28.504Z,73.6
2016-08-04T07:26:28.522Z,73.31
2016-08-04T07:27:28.514Z,73.11
2016-08-04T07:28:28.536Z,73.5
2016-08-04T07:29:28.545Z,73.31
2016-08-04T07:30:28.562Z,73.21
2016-08-04T07:31:28.554Z,73.41
2016-08-04T07:32:28.570Z,73.31
2016-08-04T07:33:28.571Z,73.41
2016-08-04T07:34:28.582Z,73.41
2016-08-04T07:35:28.587Z,72.83
2016-08-04T07:36:28.597Z,73.02
2016-08-04T07:37:28.623Z,73.21
2016-08-04T07:38:28.612Z,73.6
2016-08-04T07:39:28.630Z,73.41
2016-08-04T07:40:28.643Z,73.11
2016-08-04T07:41:28.659Z,73.41
2016-08-04T07:42:28.659Z,72.92
2016-08-04T07:43:28.665Z,73.02
2016-08-04T07:44:28.667Z,73.6
2016-08-04T07:45:28.683Z,73.6
2016-08-04T07:46:28.710Z,73.21
2016-08-04T07:47:28.698Z,73.31
2016-08-04T07:48:28.723Z,73.41
2016-08-04T07:49:28.748Z,73.5
2016-08-04T07:50:28.735Z,73.69
2016-08-04T07:52:28.753Z,73.5
2016-08-04T07:53:28.744Z,73.31
2016-08-04T07:54:28.777Z,72.83
2016-08-04T07:55:28.771Z,73.41
2016-08-04T07:56:28.791Z,73.41
2016-08-04T07:57:28.788Z,73.21
2016-08-04T07:58:28.797Z,73.21
2016-08-04T07:59:28.816Z,73.21
2016-08-04T08:00:28.831Z,73.21
2016-08-04T08:01:28.815Z,73.21
2016-08-04T08:02:28.847Z,73.21
2016-08-04T08:03:28.851Z,73.31
2016-08-04T08:04:28.867Z,73.21
2016-08-04T08:05:28.875Z,73.31
2016-08-04T08:06:28.862Z,73.21
2016-08-04T08:07:28.888Z,73.41
2016-08-04T08:08:28.880Z,73.6
2016-08-04T08:09:28.900Z,73.25
2016-08-04T08:10:28.913Z,73.21
2016-08-04T08:11:28.918Z,73.41
2016-08-04T08:12:28.937Z,73.21
2016-08-04T08:13:28.945Z,73.31
2016-08-04T08:14:28.957Z,73.15
2016-08-04T08:15:28.967Z,73.35
2016-08-04T08:16:28.975Z,72.96
2016-08-04T08:17:28.978Z,73.35
2016-08-04T08:18:28.987Z,73.06
2016-08-04T08:19:28.984Z,72.96
2016-08-04T08:20:29.012Z,73.5
2016-08-04T08:22:29.013Z,73.63
2016-08-04T08:23:29.029Z,73.44
2016-08-04T08:24:29.057Z,73.25
2016-08-04T08:25:29.033Z,73.5
2016-08-04T08:26:29.060Z,73.21
2016-08-04T08:27:29.067Z,73.35
2016-08-04T08:28:29.077Z,73.35
2016-08-04T08:29:29.076Z,73.44
2016-08-04T08:30:29.099Z,73.54
2016-08-04T08:31:29.101Z,72.96
2016-08-04T08:32:29.124Z,72.96
2016-08-04T08:33:29.119Z,73.06
2016-08-04T08:34:29.814Z,73.25
2016-08-04T08:35:29.122Z,73.15
2016-08-04T08:37:29.154Z,73.06
2016-08-04T08:38:29.169Z,73.15
2016-08-04T08:39:29.167Z,72.96
2016-08-04T08:40:29.186Z,73.06
2016-08-04T08:41:29.201Z,73.15
2016-08-04T08:42:29.206Z,73.06
2016-08-04T08:43:29.223Z,73.15
2016-08-04T08:44:29.226Z,73.25
2016-08-04T08:45:29.228Z,73.06
2016-08-04T08:46:29.234Z,73.25
2016-08-04T08:47:29.230Z,73.35
2016-08-04T08:48:29.250Z,73.15
2016-08-04T08:49:29.270Z,73.15
2016-08-04T08:50:29.251Z,73.15
2016-08-04T08:51:29.283Z,73.15
2016-08-04T08:52:29.347Z,72.86
2016-08-04T08:53:29.288Z,72.96
2016-08-04T08:54:29.295Z,72.86
2016-08-04T08:55:29.304Z,73.06
2016-08-04T08:56:29.306Z,73.06
2016-08-04T08:57:29.326Z,73.06
2016-08-04T08:58:29.334Z,73.15
2016-08-04T08:59:29.370Z,73.06
2016-08-04T09:00:29.349Z,73.25
2016-08-04T09:01:29.382Z,73.06
2016-08-04T09:02:29.387Z,73.06
2016-08-04T09:03:29.397Z,73.25
2016-08-04T09:04:29.408Z,72.48
2016-08-04T09:05:29.392Z,72.86
2016-08-04T09:07:29.431Z,73.15
2016-08-04T09:08:29.436Z,72.77
2016-08-04T09:09:29.440Z,72.96
2016-08-04T09:10:29.444Z,73.25
2016-08-04T09:11:29.450Z,72.86
2016-08-04T09:12:29.486Z,72.86
2016-08-04T09:13:29.474Z,72.48
2016-08-04T09:14:29.486Z,72.77
2016-08-04T09:15:29.495Z,72.86
2016-08-04T09:16:29.501Z,72.86
2016-08-04T09:17:29.546Z,72.58
2016-08-04T09:18:29.533Z,72.96
2016-08-04T09:19:29.523Z,72.77
2016-08-04T09:20:29.548Z,72.67
2016-08-04T09:21:29.538Z,72.67
2016-08-04T09:22:29.553Z,72.96
2016-08-04T09:23:29.561Z,72.86
2016-08-04T09:24:29.588Z,72.86
2016-08-04T09:25:29.576Z,72.58
2016-08-04T09:26:29.597Z,72.48
2016-08-04T09:27:29.594Z,72.9
2016-08-04T09:28:29.600Z,72.9
2016-08-04T09:29:29.604Z,72.9
2016-08-04T09:30:29.620Z,73
2016-08-04T09:31:29.637Z,72.42
2016-08-04T09:32:29.651Z,72.8
2016-08-04T09:33:29.652Z,73.19
2016-08-04T09:34:29.662Z,73
2016-08-04T09:35:29.695Z,72.61
2016-08-04T09:36:29.673Z,72.8
2016-08-04T09:37:29.689Z,72.71
2016-08-04T09:38:29.708Z,73
2016-08-04T09:39:30.400Z,73
2016-08-04T09:40:29.706Z,72.61
2016-08-04T09:41:29.724Z,72.42
2016-08-04T09:42:29.745Z,72.42
2016-08-04T09:43:29.747Z,72.32
2016-08-04T09:44:29.757Z,72.22
2016-08-04T09:45:29.772Z,72.42
2016-08-04T09:46:29.763Z,72.61
2016-08-04T09:47:29.783Z,72.61
2016-08-04T09:48:29.801Z,72.13
2016-08-04T09:49:29.796Z,72.42
2016-08-04T09:50:29.800Z,72.52
2016-08-04T09:51:29.826Z,71.94
2016-08-04T09:52:29.823Z,72.22
2016-08-04T09:53:29.840Z,72.13
2016-08-04T09:54:29.836Z,72.22
2016-08-04T09:55:29.860Z,72.22
2016-08-04T09:56:29.879Z,72.22
2016-08-04T09:57:29.878Z,71.84
2016-08-04T09:58:29.879Z,72.13
2016-08-04T09:59:29.877Z,72.13
2016-08-04T10:00:29.904Z,72.32
2016-08-04T10:01:29.890Z,72.13
2016-08-04T10:02:29.907Z,71.84
2016-08-04T10:03:29.921Z,71.84
2016-08-04T10:04:29.923Z,71.78
2016-08-04T10:05:29.955Z,71.84
2016-08-04T10:06:29.948Z,71.94
2016-08-04T10:07:29.960Z,71.64
2016-08-04T10:08:29.979Z,71.84
2016-08-04T10:09:29.965Z,71.78
2016-08-04T10:10:29.982Z,71.45
2016-08-04T10:11:29.996Z,71.78
2016-08-04T10:12:30.015Z,71.64
2016-08-04T10:13:30.019Z,71.48
2016-08-04T10:14:30.009Z,71
2016-08-04T10:15:30.024Z,71.58
2016-08-04T10:16:30.032Z,71.39
2016-08-04T10:17:30.036Z,71.3
2016-08-04T10:18:30.044Z,71.39
2016-08-04T10:19:30.070Z,71.3
2016-08-04T10:20:30.070Z,71.3
2016-08-04T10:21:30.073Z,71.2
2016-08-04T10:22:30.083Z,71
2016-08-04T10:23:30.087Z,71
2016-08-04T10:24:30.103Z,70.72
2016-08-04T10:25:30.134Z,70.72
2016-08-04T10:26:30.131Z,70.72
2016-08-04T10:27:30.148Z,70.9
2016-08-04T10:28:30.158Z,70.81
2016-08-04T10:29:30.145Z,71
2016-08-04T10:30:30.147Z,70.72
2016-08-04T10:31:30.176Z,71.1
2016-08-04T10:32:30.191Z,70.81
2016-08-04T10:33:30.197Z,70.9
2016-08-04T10:34:30.195Z,71
2016-08-04T10:35:30.204Z,70.72
2016-08-04T10:36:30.209Z,70.9
2016-08-04T10:37:30.227Z,70.81
2016-08-04T10:38:30.243Z,70.72
2016-08-04T10:39:30.254Z,70.9
2016-08-04T10:40:30.959Z,70.81
2016-08-04T10:41:30.254Z,70.72
2016-08-04T10:42:30.272Z,70.81
2016-08-04T10:43:30.270Z,71.1
2016-08-04T10:44:30.279Z,71.1
2016-08-04T10:45:30.285Z,70.9
2016-08-04T10:46:30.307Z,71.14
2016-08-04T10:47:30.308Z,71
2016-08-04T10:48:30.350Z,71
2016-08-04T10:49:30.337Z,70.9
2016-08-04T10:50:30.337Z,70.81
2016-08-04T10:51:30.353Z,71.04
2016-08-04T10:52:30.366Z,71.04
2016-08-04T10:53:30.369Z,70.84
2016-08-04T10:54:30.376Z,71.04
2016-08-04T10:55:30.399Z,70.84
2016-08-04T10:56:30.402Z,70.84
2016-08-04T10:57:30.400Z,70.84
2016-08-04T10:58:30.419Z,70.56
2016-08-04T10:59:30.439Z,70.56
2016-08-04T11:00:30.453Z,70.26
2016-08-04T11:01:30.458Z,70.84
2016-08-04T11:02:30.469Z,70.84
2016-08-04T11:03:30.471Z,70.65
2016-08-04T11:04:30.466Z,70.98
2016-08-04T11:05:30.485Z,70.94
2016-08-04T11:06:30.488Z,70.84
2016-08-04T11:07:30.506Z,70.75
2016-08-04T11:08:30.509Z,70.84
2016-08-04T11:09:30.538Z,70.59
2016-08-04T11:10:30.535Z,70.46
2016-08-04T11:11:30.563Z,70.36
2016-08-04T11:12:30.538Z,70.65
2016-08-04T11:13:30.574Z,70.59
2016-08-04T11:14:30.566Z,70.46
2016-08-04T11:15:30.592Z,70.1
2016-08-04T11:16:30.591Z,70.1
2016-08-04T11:17:30.604Z,70.1
2016-08-04T11:18:30.619Z,70.1
2016-08-04T11:19:30.625Z,70.2
2016-08-04T11:20:30.637Z,69.92
2016-08-04T11:21:30.632Z,70.01
2016-08-04T11:22:30.656Z,69.92
2016-08-04T11:23:30.667Z,70.01
2016-08-04T11:24:30.660Z,70.1
2016-08-04T11:25:30.660Z,70.1
2016-08-04T11:26:30.684Z,69.92
2016-08-04T11:27:30.682Z,69.82
2016-08-04T11:28:30.699Z,69.92
2016-08-04T11:29:30.713Z,69.92
2016-08-04T11:30:30.714Z,69.72
2016-08-04T11:31:30.719Z,69.82
2016-08-04T11:32:30.740Z,69.43
2016-08-04T11:33:30.741Z,69.62
2016-08-04T11:34:30.749Z,69.62
2016-08-04T11:35:30.763Z,69.43
2016-08-04T11:36:30.769Z,69.43
2016-08-04T11:38:30.793Z,69.43
2016-08-04T11:39:30.797Z,69.82
2016-08-04T11:40:30.823Z,69.62
2016-08-04T11:41:30.810Z,69.24
2016-08-04T11:42:30.823Z,69.04
2016-08-04T11:43:30.833Z,68.69
2016-08-04T11:44:30.857Z,69.17
2016-08-04T11:45:30.850Z,69.27
2016-08-04T11:46:30.875Z,69.27
2016-08-04T11:47:30.879Z,69.17
2016-08-04T11:48:30.894Z,69.37
2016-08-04T11:49:30.892Z,68.98
2016-08-04T11:50:30.908Z,68.98
2016-08-04T11:51:30.909Z,68.98
2016-08-04T11:52:30.936Z,68.98
2016-08-04T11:53:30.940Z,68.88
2016-08-04T11:54:30.943Z,69.27
2016-08-04T11:55:30.945Z,68.88
2016-08-04T11:56:30.969Z,69.27
2016-08-04T11:57:30.962Z,68.79
2016-08-04T11:58:30.995Z,69.46
2016-08-04T11:59:31.704Z,68.79
2016-08-04T12:00:30.994Z,68.69
2016-08-04T12:01:31.005Z,68.69
2016-08-04T12:02:31.013Z,68.88
2016-08-04T12:03:31.715Z,68.88
2016-08-04T12:04:31.055Z,68.98
2016-08-04T12:05:31.062Z,68.98
2016-08-04T12:06:31.057Z,68.4
2016-08-04T12:08:31.080Z,68.79
2016-08-04T12:09:31.083Z,68.79
2016-08-04T12:10:31.090Z,68.01
2016-08-04T12:11:31.125Z,68.3
2016-08-04T12:12:31.121Z,68.01
2016-08-04T12:13:31.139Z,68.4
2016-08-04T12:14:31.132Z,68.49
2016-08-04T12:15:31.161Z,68.49
2016-08-04T12:16:31.152Z,68.49
2016-08-04T12:17:31.183Z,68.49
2016-08-04T12:18:31.171Z,68.11
2016-08-04T12:19:31.193Z,68.49
2016-08-04T12:20:31.189Z,68.59
2016-08-04T12:21:31.199Z,68.49
2016-08-04T12:23:31.240Z,68.3
2016-08-04T12:24:31.234Z,67.76
2016-08-04T12:25:31.245Z,67.95
2016-08-04T12:26:31.268Z,68.05
2016-08-04T12:27:31.273Z,67.66
2016-08-04T12:28:31.271Z,67.37
2016-08-04T12:29:31.298Z,67.46
2016-08-04T12:30:31.286Z,67.56
2016-08-04T12:31:31.323Z,67.37
2016-08-04T12:32:31.323Z,66.98
2016-08-04T12:33:31.337Z,66.98
2016-08-04T12:34:31.339Z,67.37
2016-08-04T12:35:31.359Z,67.46
2016-08-04T12:36:31.371Z,67.46
2016-08-04T12:38:31.380Z,66.88
2016-08-04T12:39:31.380Z,66.69
2016-08-04T12:40:31.401Z,66.98
2016-08-04T12:41:31.417Z,66.88
2016-08-04T12:42:31.427Z,66.98
2016-08-04T12:43:31.422Z,66.98
2016-08-04T12:44:31.448Z,66.78
2016-08-04T12:45:31.440Z,67.08
2016-08-04T12:46:31.460Z,66.98
2016-08-04T12:47:31.468Z,66.5
2016-08-04T12:48:31.491Z,66.5
2016-08-04T12:49:31.480Z,66.4
2016-08-04T12:50:31.501Z,66.4
2016-08-04T12:51:31.506Z,66.3
2016-08-04T12:53:31.527Z,66.3
2016-08-04T12:54:31.545Z,66.3
2016-08-04T12:55:31.551Z,66.24
2016-08-04T12:56:31.550Z,66.02
2016-08-04T12:57:31.582Z,66.11
2016-08-04T12:58:31.573Z,66.05
2016-08-04T12:59:31.600Z,65.95
2016-08-04T13:00:31.639Z,65.75
2016-08-04T13:01:31.615Z,66.05
2016-08-04T13:02:31.622Z,66.05
2016-08-04T13:03:31.624Z,66.14
2016-08-04T13:04:31.630Z,65.95
2016-08-04T13:05:31.655Z,66.14
2016-08-04T13:06:31.649Z,66.14
2016-08-04T13:08:31.680Z,66.14
2016-08-04T13:09:31.679Z,66.34
2016-08-04T13:10:31.700Z,66.24
2016-08-04T13:11:31.715Z,66.14
2016-08-04T13:12:31.710Z,65.85
2016-08-04T13:13:31.740Z,66.14
2016-08-04T13:14:31.756Z,66.24
2016-08-04T13:15:31.747Z,66.05
2016-08-04T13:16:31.768Z,66.14
2016-08-04T13:17:31.777Z,66.34